Nearby METAR Reports

 

KSJC - San Jose, California, USA
Distance from station: NE 14km
Actualización: 08/03/2021 21:53
Parcialmente nuboso
Parcialmente nuboso
 Viento del NNE
Viento: NNE 11 km/h
Temperatura: 15°C
Rocío: 0°C
Humedad: 36%
Barómetro: 1022.7 hPa
Clouds: Parcialmente nuboso
Visibilidad: 16 km
Cloud details: Few Clouds 1524 m
Parcialmente nuboso 1829 m
2021/03/08 20:53 KSJC 082053Z 02006KT 10SM FEW050 SCT060 15/00 A3020 RMK AO2 SLP226 T01500000 58010
KNUQ - Moffett Nas/Mtn, California, USA
Distance from station: N 14km
Actualización: 08/03/2021 21:55
Despejado
Despejado
 Viento del varies
Viento: varies 11 km/h
Temperatura: 15°C
Rocío: 0°C
Humedad: 36%
Barómetro: 1022.7 hPa
Clouds: Despejado
Visibilidad: 16 km
2021/03/08 20:55 KNUQ 082055Z AUTO VRB06KT 10SM CLR 15/M00 A3020 RMK AO2
 
KPAO - Palo Alto, California, USA
Distance from station: NNO 23km
Actualización: 08/03/2021 21:47
Parcialmente nuboso
Parcialmente nuboso
 Viento del OSO
Viento: OSO 13 km/h, Racha: 28 km/h
Temperatura: 14°C
Rocío: 0°C
Humedad: 39%
Barómetro: 1023 hPa
Clouds: Parcialmente nuboso
Visibilidad: 16 km
Cloud details: Parcialmente nuboso 1219 m
2021/03/08 20:47 KPAO 082047Z 24007G15KT 10SM SCT040 14/00 A3021
KRHV - San Jose/Reid, California, USA
Distance from station: ENE 19km
Actualización: 08/03/2021 19:47
NOT Current
Parcialmente nuboso
Parcialmente nuboso
 Viento del varies
Viento: varies 7 km/h
Temperatura: 13°C
Rocío: 1°C
Humedad: 44%
Barómetro: 1023.7 hPa
Clouds: Parcialmente nuboso
Visibilidad: 16 km
Cloud details: Parcialmente nuboso 1524 m
2021/03/08 18:47 KRHV 081847Z VRB04KT 10SM SCT050 13/01 A3023
 
KOAK - Oakland, California, USA
Distance from station: NNO 50km
Actualización: 08/03/2021 21:53
Muy nuboso
Muy nuboso
 Viento del SO
Viento: SO 15 km/h
Temperatura: 16°C
Rocío: 2°C
Humedad: 39%
Barómetro: 1023 hPa
Clouds: Muy nuboso
Visibilidad: 16 km
Cloud details: Muy nuboso 1524 m
2021/03/08 20:53 KOAK 082053Z 22008KT 10SM BKN050 16/02 A3021 RMK AO2 SLP230 T01560017 58004
KSQL - San Carlos Airpo, California, USA
Distance from station: NO 34km
Actualización: 08/03/2021 21:47
Few Clouds
Few Clouds
 Viento del OSO
Viento: OSO 15 km/h
Temperatura: 14°C
Rocío: 0°C
Humedad: 39%
Barómetro: 1023.4 hPa
Clouds: Few Clouds
Visibilidad: 16 km
Cloud details: Few Clouds 1524 m
2021/03/08 20:47 KSQL 082047Z 25008KT 10SM FEW050 14/00 A3022
 
KSFO - San Francisco, California, USA
Distance from station: NO 49km
Actualización: 08/03/2021 20:56
Parcialmente nuboso
Parcialmente nuboso
 Viento del SSO
Viento: SSO 26 km/h
Temperatura: 14°C
Rocío: 2°C
Humedad: 44%
Barómetro: 1023.4 hPa
Clouds: Parcialmente nuboso
Visibilidad: 14 km
Cloud details: Parcialmente nuboso 1402 m
2021/03/08 19:56 KSFO 081956Z 20014KT 9SM SCT046 14/02 A3022 RMK AO2 SLP232 T01440017
KE16 - San Martin, California, USA
Distance from station: ESE 43km
Actualización: 08/03/2021 21:35
Parcialmente nuboso
Parcialmente nuboso
 Viento del SO
Viento: SO 19 km/h, Racha: 26 km/h
Temperatura: 13°C
Rocío: 1°C
Humedad: 44%
Barómetro: 1023.7 hPa
Clouds: Parcialmente nuboso
Visibilidad: 16 km
Cloud details: Parcialmente nuboso 1494 m
2021/03/08 20:35 KE16 082035Z AUTO 22010G14KT 150V250 10SM SCT049 13/01 A3023 RMK AO2 PWINO PNO
 
KWVI - Watsonville, California, USA
Distance from station: SSE 44km
Actualización: 08/03/2021 21:53
Despejado
Despejado
 Viento del SO
Viento: SO 17 km/h, Racha: 35 km/h
Temperatura: 13°C
Rocío: 3°C
Humedad: 51%
Barómetro: 1024 hPa
Clouds: Despejado
Visibilidad: 16 km
2021/03/08 20:53 KWVI 082053Z AUTO 23009G19KT 10SM CLR 13/03 A3024 RMK AO2 SLP240 T01330028 58001
KHAF - Half Moon Bay, California, USA
Distance from station: ONO 50km
Actualización: 08/03/2021 21:55
Haze, Despejado
Haze, Despejado
 Viento del S
Viento: S 20 km/h
Temperatura: 13°C
Rocío: 5°C
Humedad: 59%
Barómetro: 1023.7 hPa
Resumen: Haze
Clouds: Despejado
Visibilidad: 10 km
2021/03/08 20:55 KHAF 082055Z AUTO 19011KT 6SM HZ CLR 13/05 A3023 RMK AO2
 
KHWD - Hayward, California, USA
Distance from station: N 44km
Actualización: 08/03/2021 21:54
Parcialmente nuboso
Parcialmente nuboso
 Viento del O
Viento: O 15 km/h, Racha: 28 km/h
Temperatura: 13°C
Rocío: 1°C
Humedad: 44%
Barómetro: 1022.7 hPa
Clouds: Parcialmente nuboso
Visibilidad: 16 km
Cloud details: Parcialmente nuboso 1524 m
2021/03/08 20:54 KHWD 082054Z AUTO 26008G15KT 220V290 10SM SCT050 13/01 A3020 RMK AO2 SLP238 T01330011 58005
KLVK - Livermore, California, USA
Distance from station: NNE 51km
Actualización: 08/03/2021 21:53
Few Clouds
Few Clouds
 Viento del SSO
Viento: SSO 13 km/h
Temperatura: 13°C
Rocío: 0°C
Humedad: 41%
Barómetro: 1022.4 hPa
Clouds: Few Clouds
Visibilidad: 16 km
Cloud details: Few Clouds 1524 m
2021/03/08 20:53 KLVK 082053Z 20007KT 10SM FEW050 13/00 A3019 RMK AO2 SLP222 T01330000 58007